Terminal Aerodrome Forecast
Issued by NWS Oklahoma City, OK

Home | Current Version | Previous Version | Text Only | Print | Product List | Glossary On
Versions: 1 2 3 4 5 6 7 8 9 10 11 12 13 14 15 16 17 18 19 20 21 22 23 24 25 26 27 28 29 30
308
FTUS44 KOUN 281147
TAFOUN
TAF
KOUN 281147Z 2812/0112 19012KT 5SM BR BKN120
      TEMPO 2812/2814 3SM BR BKN007
     FM281530 21020G30KT P6SM BKN120
     FM010400 27014KT P6SM SCT250
     FM010800 33014G24KT P6SM BKN250=

USA.gov is the U.S. government's official web portal to all federal, state and local government web resources and services.